Terminal Aerodrome Forecast
Issued by NWS

Home | Current Version | Previous Version | Text Only | Print | Product List | Glossary On
Versions: 1 2 3 4 5 6 7 8 9 10 11 12 13 14 15 16
000
FTUS45 KABQ 241720
TAFTCC
TAF
KTCC 241720Z 2418/2518 19015G25KT P6SM SCT050
     FM250100 18010KT P6SM SCT035
     FM250900 20005KT P6SM VCSH BKN025
     FM251600 02008KT P6SM VCSH BKN035=

USA.gov is the U.S. government's official web portal to all federal, state and local government web resources and services.